Time;durP1;ratioP1;P1;durP2;ratioP2;P2;SDS_P1;SDS_P2;PMS_P1;PMS_P2;Temp;Humidity;BMP_temperature;BMP_pressure;BME280_temperature;BME280_humidity;BME280_pressure;Samples;Min_cycle;Max_cycle;Signal;HPM_P1;HPM_P2
2022/04/21 00:00:54;;;;;;;8.15;7.22;;;;;;;7.17;82.10;100293.64;1659599;86;21342;-58
2022/04/21 00:04:01;;;;;;;8.18;7.08;;;;;;;7.17;81.98;100291.41;1661715;86;21305;-60
2022/04/21 00:07:08;;;;;;;9.00;7.05;;;;;;;7.13;81.87;100289.53;1661893;86;21237;-60
2022/04/21 00:10:17;;;;;;;11.05;7.33;;;;;;;7.14;81.95;100278.11;1662035;86;21378;-60
2022/04/21 00:13:23;;;;;;;9.88;7.80;;;;;;;7.16;81.92;100272.02;1662082;86;21206;-58
2022/04/21 00:16:29;;;;;;;13.68;8.43;;;;;;;7.12;81.76;100270.64;1643931;87;21780;-60
2022/04/21 00:19:37;;;;;;;10.68;8.10;;;;;;;7.09;81.79;100284.53;1645842;85;21366;-59
2022/04/21 00:26:12;;;;;;;9.55;8.23;;;;;;;7.01;81.76;100296.20;1638659;87;21216;-58
2022/04/21 00:29:18;;;;;;;12.05;8.75;;;;;;;7.00;81.77;100304.52;1638551;87;21232;-59
2022/04/21 00:32:24;;;;;;;14.58;10.28;;;;;;;6.97;81.79;100297.54;1638853;87;21296;-59
2022/04/21 00:35:29;;;;;;;14.53;9.85;;;;;;;6.95;81.82;100295.47;1630725;87;21271;-59
2022/04/21 00:38:36;;;;;;;11.10;9.83;;;;;;;6.95;81.75;100294.11;1652894;85;21274;-59
2022/04/21 00:41:43;;;;;;;12.78;9.43;;;;;;;6.92;81.82;100305.31;1617197;87;21266;-59
2022/04/21 00:44:50;;;;;;;11.53;9.88;;;;;;;6.93;81.94;100304.28;1632338;87;21227;-59
2022/04/21 00:47:58;;;;;;;12.07;10.72;;;;;;;6.95;81.83;100298.69;1636471;87;21227;-60
2022/04/21 00:51:05;;;;;;;11.63;10.18;;;;;;;6.91;81.75;100296.77;1636414;87;21218;-59
2022/04/21 00:54:12;;;;;;;14.85;11.22;;;;;;;6.91;81.81;100291.33;1636654;87;21241;-59
2022/04/21 00:57:20;;;;;;;17.77;11.95;;;;;;;6.88;81.68;100286.73;1636885;86;21222;-59
2022/04/21 01:00:27;;;;;;;14.95;12.05;;;;;;;6.82;81.68;100284.11;1636899;87;21263;-59
2022/04/21 01:03:36;;;;;;;16.23;11.70;;;;;;;6.78;81.78;100289.52;1652219;87;21249;-59
2022/04/21 01:06:42;;;;;;;15.18;12.07;;;;;;;6.78;81.87;100294.95;1652271;87;21238;-58
2022/04/21 01:09:48;;;;;;;15.95;12.15;;;;;;;6.79;81.89;100299.88;1652258;86;21218;-59
2022/04/21 01:12:54;;;;;;;15.03;12.20;;;;;;;6.78;81.76;100292.73;1652239;87;21309;-58
2022/04/21 01:16:01;;;;;;;16.87;11.83;;;;;;;6.74;81.64;100290.81;1652310;87;21352;-58
2022/04/21 01:19:07;;;;;;;17.17;12.33;;;;;;;6.74;81.66;100298.98;1651676;85;21762;-59
2022/04/21 01:22:13;;;;;;;15.70;11.90;;;;;;;6.65;81.43;100305.34;1633781;87;21519;-59
2022/04/21 01:25:20;;;;;;;17.00;11.55;;;;;;;6.58;81.65;100300.16;1650162;87;21420;-59
2022/04/21 01:28:29;;;;;;;15.48;12.07;;;;;;;6.51;81.72;100299.56;1664843;86;21364;-59
2022/04/21 01:31:38;;;;;;;14.18;11.85;;;;;;;6.40;81.79;100302.00;1655088;86;21202;-59
2022/04/21 01:34:46;;;;;;;15.08;12.30;;;;;;;6.29;82.04;100299.48;1650143;87;21226;-59
2022/04/21 01:41:17;;;;;;;15.85;12.70;;;;;;;6.16;82.46;100294.02;1650193;87;21315;-59
2022/04/21 01:44:24;;;;;;;16.25;12.88;;;;;;;6.05;82.59;100304.09;1650168;87;21310;-59
2022/04/21 01:47:31;;;;;;;16.97;12.98;;;;;;;6.02;82.93;100300.29;1650168;87;21234;-59
2022/04/21 01:50:38;;;;;;;17.82;12.75;;;;;;;5.95;83.04;100302.40;1650148;87;21261;-58
2022/04/21 01:53:44;;;;;;;15.65;13.08;;;;;;;5.85;83.12;100303.79;1650097;87;21266;-58
2022/04/21 01:56:50;;;;;;;19.87;13.58;;;;;;;5.75;83.24;100295.30;1650112;87;21226;-59
2022/04/21 01:59:56;;;;;;;17.48;13.50;;;;;;;5.65;83.23;100296.68;1650231;87;21266;-58
2022/04/21 02:03:02;;;;;;;18.65;12.90;;;;;;;5.53;83.32;100298.35;1650196;87;21305;-58
2022/04/21 02:06:08;;;;;;;15.63;13.43;;;;;;;5.45;83.35;100299.58;1650060;86;21214;-59
2022/04/21 02:09:15;;;;;;;17.15;13.40;;;;;;;5.29;83.36;100296.59;1650090;87;21245;-59
2022/04/21 02:12:23;;;;;;;19.57;14.30;;;;;;;5.15;83.55;100298.40;1650089;87;21313;-58
2022/04/21 02:15:32;;;;;;;18.82;14.18;;;;;;;5.03;83.79;100294.97;1650155;86;21206;-59
2022/04/21 02:18:37;;;;;;;18.77;13.62;;;;;;;4.90;83.93;100299.81;1636320;86;21408;-59
2022/04/21 02:21:44;;;;;;;17.20;14.40;;;;;;;4.78;84.12;100302.31;1632782;86;21343;-59
2022/04/21 02:24:49;;;;;;;20.77;15.08;;;;;;;4.68;84.37;100299.23;1650246;87;21285;-59
2022/04/21 02:27:56;;;;;;;16.52;13.43;;;;;;;4.59;84.63;100299.08;1635274;86;21317;-59
2022/04/21 02:31:02;;;;;;;19.80;15.68;;;;;;;4.51;84.85;100303.48;1650150;87;21352;-58
2022/04/21 02:34:10;;;;;;;18.95;15.78;;;;;;;4.41;85.00;100314.30;1650184;87;21282;-58
2022/04/21 02:37:17;;;;;;;17.85;15.68;;;;;;;4.34;85.21;100305.51;1650080;87;21384;-58
2022/04/21 02:40:23;;;;;;;20.27;15.93;;;;;;;4.26;85.54;100302.63;1650216;87;21368;-58
2022/04/21 02:43:29;;;;;;;18.40;16.07;;;;;;;4.19;85.83;100305.03;1650182;87;21206;-59
2022/04/21 02:46:40;;;;;;;19.25;15.45;;;;;;;4.16;86.11;100311.20;1650098;87;21294;-58
2022/04/21 02:49:49;;;;;;;20.05;16.48;;;;;;;4.10;86.30;100301.80;1650333;86;21787;-59
2022/04/21 02:52:55;;;;;;;18.52;14.78;;;;;;;4.04;86.60;100305.03;1633961;86;21742;-59
2022/04/21 02:59:26;;;;;;;19.60;15.18;;;;;;;3.98;87.14;100318.28;1650127;86;21258;-59
2022/04/21 03:02:34;;;;;;;19.32;16.62;;;;;;;3.97;87.38;100320.12;1650097;87;21293;-59
2022/04/21 03:05:40;;;;;;;20.05;15.48;;;;;;;3.99;87.63;100317.28;1650158;87;21734;-60
2022/04/21 03:08:48;;;;;;;18.87;15.00;;;;;;;3.99;87.76;100318.15;1650027;87;21372;-59
2022/04/21 03:11:56;;;;;;;19.15;15.63;;;;;;;4.02;87.91;100323.77;1650125;86;21275;-60
2022/04/21 03:15:01;;;;;;;19.10;17.07;;;;;;;4.02;87.99;100326.48;1650158;87;21254;-58
2022/04/21 03:18:07;;;;;;;18.85;15.20;;;;;;;3.99;88.14;100331.69;1650094;87;21246;-59
2022/04/21 03:24:41;;;;;;;18.37;15.18;;;;;;;3.97;88.47;100336.38;1595881;89;21470;-59
2022/04/21 03:27:50;;;;;;;18.55;16.05;;;;;;;3.95;88.73;100332.94;1603416;88;21256;-58
2022/04/21 03:30:58;;;;;;;21.80;17.50;;;;;;;3.99;89.02;100336.23;1603442;89;21232;-59
2022/04/21 03:34:05;;;;;;;22.25;17.17;;;;;;;4.05;89.25;100346.03;1634404;88;21278;-59
2022/04/21 03:37:11;;;;;;;24.87;17.65;;;;;;;4.13;89.41;100344.86;1635927;85;21231;-59
2022/04/21 03:40:18;;;;;;;19.48;15.95;;;;;;;4.16;89.50;100341.87;1636251;88;21343;-58
2022/04/21 03:43:24;;;;;;;23.85;16.87;;;;;;;4.17;89.56;100342.22;1635602;87;21294;-58
2022/04/21 03:46:32;;;;;;;19.23;16.45;;;;;;;4.19;89.69;100348.86;1635336;87;21299;-58
2022/04/21 03:49:37;;;;;;;20.80;16.82;;;;;;;4.23;89.95;100347.09;1635354;88;21727;-58
2022/04/21 03:52:45;;;;;;;22.90;19.10;;;;;;;4.31;90.10;100354.04;1645119;87;21218;-58
2022/04/21 03:55:51;;;;;;;20.10;16.50;;;;;;;4.39;90.33;100362.34;1645014;86;21206;-58
2022/04/21 03:59:00;;;;;;;21.73;16.30;;;;;;;4.47;90.46;100350.31;1644984;86;21314;-58
2022/04/21 04:02:06;;;;;;;19.05;16.30;;;;;;;4.52;90.41;100361.61;1629058;87;21222;-59
2022/04/21 04:05:13;;;;;;;19.95;15.85;;;;;;;4.58;90.40;100360.22;1645207;87;21234;-58
2022/04/21 04:11:43;;;;;;;22.75;17.75;;;;;;;4.67;90.35;100369.34;1645835;86;21238;-58
2022/04/21 04:14:49;;;;;;;21.70;16.62;;;;;;;4.72;90.44;100365.73;1645583;87;21219;-59
2022/04/21 04:17:57;;;;;;;19.67;16.30;;;;;;;4.80;90.41;100374.02;1645460;87;21262;-60
2022/04/21 04:21:04;;;;;;;19.50;16.15;;;;;;;4.85;90.37;100365.84;1645693;87;21222;-61
2022/04/21 04:24:12;;;;;;;19.17;15.95;;;;;;;4.97;90.43;100367.91;1629704;87;21238;-59
2022/04/21 04:27:19;;;;;;;20.20;16.05;;;;;;;5.12;90.41;100365.99;1654343;86;21258;-59
2022/04/21 04:30:25;;;;;;;18.85;16.42;;;;;;;5.27;90.27;100366.43;1654016;87;21206;-58
2022/04/21 04:33:33;;;;;;;20.02;16.27;;;;;;;5.40;90.04;100367.88;1627316;87;21273;-59
2022/04/21 04:36:38;;;;;;;18.48;15.20;;;;;;;5.56;89.88;100368.65;1629835;87;21234;-58
2022/04/21 04:39:43;;;;;;;18.90;16.57;;;;;;;5.73;89.80;100374.69;1601040;89;21623;-58
2022/04/21 04:42:49;;;;;;;18.00;15.83;;;;;;;5.89;89.65;100370.42;1653782;86;21190;-59
2022/04/21 04:49:19;;;;;;;17.12;15.05;;;;;;;6.08;88.72;100379.02;1656338;85;21221;-59
2022/04/21 04:52:25;;;;;;;19.75;15.72;;;;;;;6.12;88.36;100371.43;1654314;87;21233;-58
2022/04/21 04:55:30;;;;;;;22.60;15.45;;;;;;;6.28;88.41;100374.38;1632533;87;21253;-59
2022/04/21 04:58:37;;;;;;;20.95;16.12;;;;;;;6.45;88.30;100379.89;1632737;86;21272;-58
2022/04/21 05:01:49;;;;;;;20.97;16.75;;;;;;;6.62;87.84;100379.09;1666034;85;21236;-60
2022/04/21 05:04:55;;;;;;;23.18;16.82;;;;;;;6.73;87.29;100373.94;1675423;85;21225;-58
2022/04/21 05:07:54;;;;;;;22.98;17.40;;;;;;;6.79;86.75;100370.11;1660475;85;21789;-58
2022/04/21 05:10:48;;;;;;;19.70;16.52;;;;;;;6.80;86.31;100374.53;1675618;85;21233;-58
2022/04/21 05:13:34;;;;;;;18.77;15.48;;;;;;;6.87;86.17;100379.73;1676298;85;21237;-59
2022/04/21 05:16:27;;;;;;;18.03;15.50;;;;;;;6.92;85.84;100381.49;1676358;85;21217;-59
2022/04/21 05:19:16;;;;;;;24.02;16.32;;;;;;;6.93;85.65;100378.28;1675760;85;21746;-61
2022/04/21 05:22:12;;;;;;;20.88;16.55;;;;;;;6.85;85.40;100382.27;1676164;85;21249;-58
2022/04/21 05:25:05;;;;;;;23.30;17.77;;;;;;;6.77;85.55;100387.61;1651539;85;21275;-57
2022/04/21 05:28:17;;;;;;;20.23;16.23;;;;;;;6.70;85.82;100392.80;1596253;89;21819;-57
2022/04/21 05:31:23;;;;;;;19.45;16.57;;;;;;;6.66;86.23;100390.00;1613448;89;21210;-57
2022/04/21 05:34:33;;;;;;;21.27;16.85;;;;;;;6.66;86.60;100398.16;1618206;88;21208;-57
2022/04/21 05:37:40;;;;;;;23.90;17.57;;;;;;;6.66;86.75;100396.80;1635668;87;21258;-56
2022/04/21 05:40:50;;;;;;;23.55;16.32;;;;;;;6.67;86.88;100393.59;1593068;89;21795;-56
2022/04/21 05:43:55;;;;;;;25.80;18.57;;;;;;;6.66;87.08;100392.72;1611217;86;21268;-57
2022/04/21 05:47:03;;;;;;;26.15;19.15;;;;;;;6.61;87.31;100402.36;1600431;89;21245;-57
2022/04/21 05:50:08;;;;;;;25.77;18.02;;;;;;;6.59;87.70;100397.07;1588764;88;21766;-57
2022/04/21 05:53:15;;;;;;;22.93;16.77;;;;;;;6.64;88.03;100401.56;1629775;87;21293;-57
2022/04/21 05:56:22;;;;;;;22.52;17.25;;;;;;;6.73;88.43;100393.84;1640202;87;21239;-58
2022/04/21 05:59:34;;;;;;;24.30;17.07;;;;;;;6.83;88.41;100394.66;1622122;88;21765;-60
2022/04/21 06:02:52;;;;;;;22.35;18.00;;;;;;;6.92;88.42;100393.74;1650109;87;21209;-58
2022/04/21 06:06:05;;;;;;;21.37;16.85;;;;;;;7.01;88.43;100401.47;1650392;87;21221;-57
2022/04/21 06:09:11;;;;;;;21.85;16.97;;;;;;;7.22;88.75;100401.56;1650244;87;21588;-58
2022/04/21 06:12:17;;;;;;;18.77;15.48;;;;;;;7.46;88.69;100405.90;1650071;85;21796;-58
2022/04/21 06:15:24;;;;;;;20.17;14.83;;;;;;;7.68;87.74;100407.78;1650705;87;21709;-58
2022/04/21 06:18:29;;;;;;;21.65;14.47;;;;;;;7.85;86.68;100411.02;1650962;87;21221;-58
2022/04/21 06:21:38;;;;;;;15.98;13.28;;;;;;;8.00;85.67;100410.78;1650692;87;21213;-57
2022/04/21 06:24:45;;;;;;;16.35;12.78;;;;;;;7.97;84.10;100413.83;1650329;86;21241;-58
2022/04/21 06:27:55;;;;;;;15.50;12.58;;;;;;;7.91;83.49;100420.78;1620891;87;21218;-59
2022/04/21 06:31:02;;;;;;;17.15;13.25;;;;;;;7.86;83.08;100426.34;1617387;88;21272;-59
2022/04/21 06:34:09;;;;;;;14.30;11.75;;;;;;;7.85;83.08;100427.37;1603506;89;21235;-58
2022/04/21 06:37:14;;;;;;;13.08;11.22;;;;;;;7.84;82.57;100427.00;1600399;88;21305;-58
2022/04/21 06:40:19;;;;;;;14.98;12.15;;;;;;;7.81;82.12;100417.28;1591095;89;21231;-58
2022/04/21 06:50:16;;;;;;;13.22;10.15;;;;;;;7.75;81.57;100432.91;1612967;89;21247;-58
2022/04/21 06:53:21;;;;;;;12.07;10.05;;;;;;;7.77;80.87;100437.66;1589016;88;21271;-58
2022/04/21 06:56:27;;;;;;;11.48;9.63;;;;;;;7.80;80.97;100439.23;1611970;87;21780;-58
2022/04/21 06:59:34;;;;;;;10.03;8.73;;;;;;;7.99;81.19;100434.97;1633814;87;21415;-59
2022/04/21 07:02:42;;;;;;;10.60;9.35;;;;;;;8.17;80.66;100437.14;1633763;87;22086;-58
2022/04/21 07:05:55;;;;;;;11.18;9.65;;;;;;;8.25;79.96;100435.87;1633673;87;22093;-57
2022/04/21 07:09:05;;;;;;;10.93;9.08;;;;;;;8.19;78.62;100441.94;1610861;88;21351;-57
2022/04/21 07:12:18;;;;;;;11.48;9.43;;;;;;;8.16;78.74;100445.85;1609177;89;21199;-59
2022/04/21 07:15:25;;;;;;;13.45;9.48;;;;;;;8.19;78.60;100444.16;1590327;89;21247;-59
2022/04/21 07:18:33;;;;;;;9.80;8.53;;;;;;;8.26;78.74;100452.60;1585202;89;22319;-58
2022/04/21 07:21:40;;;;;;;9.48;8.53;;;;;;;8.39;78.54;100451.65;1603470;89;21860;-59
2022/04/21 07:24:46;;;;;;;10.70;9.60;;;;;;;8.37;77.67;100452.34;1603222;89;21296;-57
2022/04/21 07:27:54;;;;;;;10.63;9.53;;;;;;;8.40;77.84;100450.66;1617617;85;21312;-57
2022/04/21 07:31:00;;;;;;;10.10;8.60;;;;;;;8.42;77.66;100449.46;1623350;88;21272;-58
2022/04/21 07:34:07;;;;;;;8.80;7.75;;;;;;;8.43;77.56;100444.37;1612949;88;21859;-58
2022/04/21 07:37:14;;;;;;;8.63;7.60;;;;;;;8.57;77.22;100450.59;1586034;89;22058;-57
2022/04/21 07:40:24;;;;;;;9.13;8.18;;;;;;;8.77;76.66;100443.01;1585732;90;21672;-58
2022/04/21 07:43:35;;;;;;;8.00;6.95;;;;;;;9.03;76.59;100435.64;1611360;87;21304;-57
2022/04/21 07:46:59;;;;;;;6.33;5.72;;;;;;;9.35;76.57;100433.52;1603012;89;21255;-59
2022/04/21 07:50:06;;;;;;;10.18;6.65;;;;;;;9.34;72.83;100434.02;1610565;88;21663;-57
2022/04/21 07:53:15;;;;;;;8.58;6.80;;;;;;;9.20;72.38;100438.77;1610676;89;21295;-58
2022/04/21 07:56:22;;;;;;;8.40;6.15;;;;;;;9.18;72.62;100435.33;1612012;89;21243;-59
2022/04/21 07:59:29;;;;;;;7.20;6.40;;;;;;;9.27;72.74;100435.73;1612337;89;21586;-58
2022/04/21 08:02:36;;;;;;;8.25;5.75;;;;;;;9.43;72.43;100432.17;1612334;88;21307;-58
2022/04/21 08:05:45;;;;;;;6.25;5.65;;;;;;;9.62;72.31;100430.00;1611302;88;21216;-58
2022/04/21 08:08:51;;;;;;;7.50;5.78;;;;;;;9.91;71.29;100430.35;1611764;88;21212;-59
2022/04/21 08:11:57;;;;;;;5.80;4.95;;;;;;;10.10;70.21;100438.78;1611643;88;21228;-61
2022/04/21 08:15:03;;;;;;;7.25;5.20;;;;;;;10.28;68.51;100436.70;1589967;89;21579;-59
2022/04/21 08:18:12;;;;;;;6.05;5.15;;;;;;;10.21;67.65;100438.44;1613740;87;21319;-59
2022/04/21 08:21:14;;;;;;;6.28;4.58;;;;;;;10.21;68.69;100437.06;1612394;89;21756;-59
2022/04/21 08:34:39;;;;;;;5.53;4.45;;;;;;;11.09;64.66;100431.86;1639616;87;21234;-58
2022/04/21 08:37:46;;;;;;;4.60;4.17;;;;;;;11.00;63.74;100436.53;1637245;87;21597;-55
2022/04/21 08:41:03;;;;;;;6.55;5.30;;;;;;;10.86;63.90;100444.09;1638296;87;21290;-58
2022/04/21 08:44:10;;;;;;;6.65;4.70;;;;;;;10.85;64.81;100441.53;1649096;87;21751;-57
2022/04/21 08:47:21;;;;;;;5.30;4.72;;;;;;;10.99;64.62;100437.55;1628385;87;21269;-56
2022/04/21 08:50:28;;;;;;;5.70;4.22;;;;;;;11.06;62.82;100447.28;1643100;86;21232;-60
2022/04/21 08:53:35;;;;;;;8.40;5.87;;;;;;;10.98;62.86;100439.95;1654070;86;21288;-59
2022/04/21 08:56:41;;;;;;;6.75;5.67;;;;;;;11.06;63.66;100441.80;1651777;86;21286;-60
2022/04/21 08:59:47;;;;;;;5.65;4.33;;;;;;;11.19;63.86;100441.59;1600822;89;22192;-60
2022/04/21 09:02:53;;;;;;;6.78;4.87;;;;;;;11.13;62.32;100445.55;1636335;86;21757;-60
2022/04/21 09:06:00;;;;;;;8.15;4.45;;;;;;;10.86;62.60;100440.52;1599474;89;21238;-59
2022/04/21 09:09:26;;;;;;;8.30;5.10;;;;;;;10.67;63.07;100436.31;1606365;89;21260;-59
2022/04/21 09:12:33;;;;;;;5.67;4.58;;;;;;;10.56;63.54;100440.75;1633996;87;21216;-58
2022/04/21 09:15:43;;;;;;;8.28;4.70;;;;;;;10.65;64.04;100437.49;1605961;89;21288;-59
2022/04/21 09:18:52;;;;;;;6.33;4.95;;;;;;;10.79;63.93;100439.50;1651997;86;21223;-58
2022/04/21 09:22:00;;;;;;;5.00;4.20;;;;;;;11.00;64.76;100439.78;1629336;88;21768;-61
2022/04/21 09:25:08;;;;;;;7.37;5.67;;;;;;;11.29;65.01;100440.00;1630094;86;21227;-61
2022/04/21 09:28:33;;;;;;;5.60;4.47;;;;;;;11.54;63.98;100444.31;1629180;87;21227;-61
2022/04/21 09:31:38;;;;;;;6.45;4.95;;;;;;;11.62;62.00;100444.27;1622498;88;21268;-59
2022/04/21 09:34:51;;;;;;;7.45;5.40;;;;;;;11.57;60.41;100439.83;1623362;88;21213;-60
2022/04/21 09:38:01;;;;;;;7.80;5.35;;;;;;;11.34;60.65;100445.27;1634406;88;21233;-60
2022/04/21 09:41:15;;;;;;;7.08;4.85;;;;;;;11.34;61.52;100440.30;1634831;88;21742;-60
2022/04/21 09:47:47;;;;;;;6.72;5.50;;;;;;;11.24;62.28;100441.05;1632576;86;21268;-60
2022/04/21 09:50:57;;;;;;;6.65;4.87;;;;;;;11.44;63.06;100434.08;1614841;88;21281;-61
2022/04/21 09:54:16;;;;;;;7.33;5.17;;;;;;;11.65;62.11;100430.22;1626375;87;21245;-61
2022/04/21 09:57:22;;;;;;;8.35;6.50;;;;;;;11.84;61.74;100426.46;1639770;87;21231;-60
2022/04/21 10:00:29;;;;;;;8.08;6.37;;;;;;;12.27;61.27;100428.18;1639224;87;21219;-59
2022/04/21 10:03:41;;;;;;;10.48;6.50;;;;;;;12.57;59.61;100428.56;1602874;88;22086;-61
2022/04/21 10:07:01;;;;;;;7.60;6.75;;;;;;;12.66;58.10;100435.67;1848998;76;22263;-60
2022/04/21 10:10:16;;;;;;;8.28;6.33;;;;;;;12.70;58.58;100431.53;1766980;81;21335;-54
2022/04/21 10:13:23;;;;;;;8.68;7.03;;;;;;;12.93;58.41;100437.27;1771340;80;21228;-55
2022/04/21 10:16:35;;;;;;;8.03;6.92;;;;;;;13.00;57.38;100429.98;1770870;80;21763;-55
2022/04/21 10:19:50;;;;;;;9.95;7.45;;;;;;;13.20;56.59;100430.26;1761595;81;21555;-54
2022/04/21 10:22:58;;;;;;;9.48;6.70;;;;;;;13.43;55.49;100425.46;1756902;79;21180;-55
2022/04/21 10:26:12;;;;;;;8.28;7.08;;;;;;;13.58;53.90;100435.06;1797106;79;21160;-53
2022/04/21 10:29:30;;;;;;;9.15;6.75;;;;;;;13.57;54.11;100434.73;1796562;79;21547;-61
2022/04/21 10:32:55;;;;;;;8.85;7.00;;;;;;;13.52;52.42;100435.33;1797848;79;21235;-61
2022/04/21 10:36:05;;;;;;;11.55;6.70;;;;;;;13.52;53.02;100440.28;1745193;80;21217;-62
2022/04/21 10:39:30;;;;;;;6.78;6.00;;;;;;;13.81;53.36;100428.88;1732004;82;21201;-60
2022/04/21 10:42:38;;;;;;;8.08;6.47;;;;;;;13.95;51.69;100434.33;1760092;80;21190;-60
2022/04/21 10:45:45;;;;;;;8.45;6.30;;;;;;;13.78;51.14;100440.28;1757433;80;21221;-61
2022/04/21 10:48:53;;;;;;;11.38;7.53;;;;;;;13.53;51.89;100443.38;1743892;80;21355;-64
2022/04/21 10:58:55;;;;;;;7.75;5.83;;;;;;;13.53;54.73;100453.01;1740681;82;21236;-61
2022/04/21 11:02:02;;;;;;;6.28;4.97;;;;;;;13.68;54.28;100447.98;1766090;80;21224;-61
2022/04/21 11:05:33;;;;;;;6.75;6.00;;;;;;;13.60;51.79;100442.60;1770121;80;21181;-62
2022/04/21 11:08:40;;;;;;;10.28;7.00;;;;;;;13.51;53.84;100446.84;1756674;81;21542;-61
2022/04/21 11:11:53;;;;;;;7.78;6.90;;;;;;;13.57;56.06;100449.36;1754249;80;21301;-61
2022/04/21 11:14:59;;;;;;;9.88;7.15;;;;;;;13.79;56.36;100445.59;1771586;80;21232;-62
2022/04/21 11:18:27;;;;;;;9.90;8.03;;;;;;;14.11;54.25;100449.18;1763342;80;21217;-60
2022/04/21 11:21:33;;;;;;;9.43;8.15;;;;;;;14.25;52.20;100443.33;1758528;80;21251;-56
2022/04/21 11:25:07;;;;;;;11.60;8.25;;;;;;;14.29;51.78;100447.37;1729231;82;21252;-56
2022/04/21 11:28:15;;;;;;;7.72;6.85;;;;;;;14.22;52.33;100450.58;1735668;81;22096;-55
2022/04/21 11:31:24;;;;;;;9.08;7.42;;;;;;;14.39;52.23;100457.54;1771359;80;21371;-56
2022/04/21 11:34:35;;;;;;;13.65;8.30;;;;;;;14.35;51.64;100451.56;1764087;80;21213;-55
2022/04/21 11:38:05;;;;;;;11.15;8.60;;;;;;;14.48;52.29;100452.20;1770907;80;21205;-56
2022/04/21 11:41:13;;;;;;;10.60;8.05;;;;;;;14.54;52.08;100451.43;1771048;80;21157;-56
2022/04/21 11:44:22;;;;;;;7.72;5.83;;;;;;;14.07;52.10;100471.80;1771114;80;21319;-56
2022/04/21 11:47:30;;;;;;;7.47;5.47;;;;;;;13.56;52.86;100471.55;1784907;80;21204;-57
2022/04/21 11:50:35;;;;;;;25.15;19.60;;;;;;;13.12;54.01;100472.45;1770842;80;21241;-57
2022/04/21 11:53:44;;;;;;;7.40;5.97;;;;;;;12.80;53.85;100456.80;1771032;80;21220;-57
2022/04/21 11:56:32;;;;;;;12.10;10.55;;;;;;;12.70;55.10;100460.37;1714998;81;21633;-56
2022/04/21 11:59:36;;;;;;;10.98;8.90;;;;;;;12.60;56.15;100467.50;1739132;82;21618;-56
2022/04/21 12:09:06;;;;;;;20.12;14.75;;;;;;;11.91;61.41;100474.59;1691035;84;21271;-59
2022/04/21 12:12:15;;;;;;;15.08;10.70;;;;;;;11.77;63.36;100483.61;1704325;84;21310;-60
2022/04/21 12:15:34;;;;;;;15.30;9.93;;;;;;;11.82;64.70;100482.05;1704650;84;21761;-59
2022/04/21 12:18:57;;;;;;;10.58;8.33;;;;;;;11.98;65.46;100494.79;1729624;82;21187;-59
2022/04/21 12:22:11;;;;;;;9.43;7.90;;;;;;;12.28;66.22;100487.52;1722930;82;21714;-59
2022/04/21 12:25:18;;;;;;;12.68;9.20;;;;;;;12.62;66.37;100475.02;1732550;82;21241;-60
2022/04/21 12:28:25;;;;;;;8.45;6.40;;;;;;;12.80;63.08;100471.91;1733969;82;21192;-59
2022/04/21 12:31:33;;;;;;;7.92;6.70;;;;;;;12.86;63.31;100470.64;1734059;82;21176;-60
2022/04/21 12:34:43;;;;;;;7.15;6.45;;;;;;;13.01;62.76;100468.80;1734888;82;21192;-59
2022/04/21 12:41:20;;;;;;;7.72;6.92;;;;;;;13.22;60.22;100463.38;1716989;82;21271;-59
2022/04/21 12:44:30;;;;;;;9.75;7.97;;;;;;;13.30;60.80;100472.89;1719226;82;21219;-59
2022/04/21 12:47:37;;;;;;;10.08;8.03;;;;;;;13.20;60.13;100470.12;1733990;82;21189;-61
2022/04/21 12:50:43;;;;;;;11.95;8.15;;;;;;;13.04;60.71;100472.55;1734546;82;21686;-58
2022/04/21 12:53:48;;;;;;;8.15;7.35;;;;;;;12.88;60.83;100473.20;1699464;82;21239;-59
2022/04/21 12:57:01;;;;;;;10.13;7.17;;;;;;;12.71;60.94;100479.41;1734496;82;21216;-61
2022/04/21 13:00:07;;;;;;;9.70;8.45;;;;;;;12.50;60.17;100479.26;1733518;82;21200;-59
2022/04/21 13:03:14;;;;;;;8.70;7.83;;;;;;;12.41;60.16;100476.77;1734491;82;21263;-59
2022/04/21 13:06:21;;;;;;;8.18;6.75;;;;;;;12.40;60.60;100474.53;1734100;82;21181;-60
2022/04/21 13:09:28;;;;;;;7.12;6.42;;;;;;;12.65;60.67;100474.67;1763049;77;21302;-60
2022/04/21 13:12:35;;;;;;;12.25;6.28;;;;;;;13.08;59.87;100481.27;1769437;80;21225;-59
2022/04/21 13:15:40;;;;;;;7.28;6.58;;;;;;;13.46;58.57;100493.31;1770033;81;21248;-59
2022/04/21 13:18:47;;;;;;;8.80;7.15;;;;;;;13.79;56.73;100495.63;1763449;79;21189;-61
2022/04/21 13:21:55;;;;;;;5.80;5.22;;;;;;;13.92;56.12;100515.89;1769975;80;21342;-59
2022/04/21 13:25:02;;;;;;;4.78;4.12;;;;;;;13.69;56.22;100519.84;1758939;80;21252;-56
2022/04/21 13:28:10;;;;;;;6.40;5.80;;;;;;;13.14;57.98;100524.48;1740361;82;21212;-56
2022/04/21 13:34:42;;;;;;;7.97;7.08;;;;;;;12.17;62.30;100532.72;1764586;81;21601;-58
2022/04/21 13:37:48;;;;;;;8.48;7.67;;;;;;;12.31;64.21;100526.95;1764316;81;21185;-57
2022/04/21 13:41:07;;;;;;;8.63;6.12;;;;;;;12.59;63.46;100528.94;1764079;81;21159;-58
2022/04/21 13:44:14;;;;;;;8.35;6.87;;;;;;;12.80;62.44;100533.22;1764037;81;21177;-58
2022/04/21 13:47:23;;;;;;;7.65;5.67;;;;;;;13.08;62.50;100535.70;1764692;81;21240;-56
2022/04/21 13:50:29;;;;;;;8.75;6.37;;;;;;;13.19;60.98;100531.11;1756934;81;21161;-58
2022/04/21 13:53:35;;;;;;;6.90;6.20;;;;;;;13.24;60.47;100525.90;1768481;81;21189;-56
2022/04/21 13:56:42;;;;;;;7.47;6.67;;;;;;;13.38;59.50;100531.91;1768983;80;21326;-56
2022/04/21 13:59:48;;;;;;;6.72;6.03;;;;;;;13.33;58.92;100530.25;1756244;80;21178;-57
2022/04/21 14:03:05;;;;;;;6.87;5.80;;;;;;;13.53;58.13;100530.53;1769238;80;21208;-58
2022/04/21 14:06:15;;;;;;;7.42;5.37;;;;;;;13.72;56.14;100525.81;1759730;81;21181;-55
2022/04/21 14:09:24;;;;;;;7.40;6.70;;;;;;;13.98;54.91;100536.30;1766764;80;21208;-58
2022/04/21 14:12:36;;;;;;;6.50;5.80;;;;;;;14.25;54.08;100535.06;1745413;80;21217;-57
2022/04/21 14:15:42;;;;;;;7.72;6.65;;;;;;;14.48;52.81;100538.97;1744382;81;21181;-58
2022/04/21 14:18:50;;;;;;;7.80;7.00;;;;;;;14.43;52.42;100530.48;1768330;81;21665;-56
2022/04/21 14:21:54;;;;;;;8.15;7.35;;;;;;;14.31;52.54;100539.78;1764150;81;21201;-57
2022/04/21 14:25:00;;;;;;;8.60;7.35;;;;;;;14.09;52.68;100544.04;1768883;80;21354;-59
2022/04/21 14:28:09;;;;;;;7.83;6.90;;;;;;;13.85;54.00;100542.49;1768104;81;21283;-57
2022/04/21 14:31:16;;;;;;;9.93;7.10;;;;;;;13.76;53.57;100540.91;1762231;81;21745;-58
2022/04/21 14:34:25;;;;;;;7.55;6.78;;;;;;;13.44;54.34;100539.43;1769530;80;22007;-58
2022/04/21 14:44:17;;;;;;;8.43;7.40;;;;;;;13.63;53.55;100548.13;1770431;81;21201;-58
2022/04/21 14:47:25;;;;;;;8.83;7.33;;;;;;;13.78;53.45;100548.97;1769794;80;21817;-59
2022/04/21 14:50:30;;;;;;;9.78;8.45;;;;;;;13.85;53.65;100551.27;1750432;80;21231;-59
2022/04/21 14:53:36;;;;;;;9.38;8.05;;;;;;;13.71;54.19;100549.39;1740092;82;21333;-58
2022/04/21 14:56:43;;;;;;;8.73;7.78;;;;;;;13.60;54.20;100556.75;1767047;80;21181;-58
2022/04/21 14:59:48;;;;;;;8.83;7.70;;;;;;;13.41;54.59;100554.07;1752998;80;21322;-60
2022/04/21 15:02:56;;;;;;;9.18;7.90;;;;;;;13.27;55.41;100563.17;1770049;80;21271;-58
2022/04/21 15:06:04;;;;;;;8.83;7.55;;;;;;;13.39;56.02;100565.77;1770117;81;21298;-58
2022/04/21 15:09:12;;;;;;;10.15;7.37;;;;;;;13.34;55.54;100570.47;1770461;81;21753;-58
2022/04/21 15:12:19;;;;;;;12.05;8.60;;;;;;;13.26;55.29;100573.82;1737088;82;21204;-58
2022/04/21 15:15:25;;;;;;;8.25;7.45;;;;;;;13.30;55.44;100571.88;1719427;82;21732;-58
2022/04/21 15:18:31;;;;;;;8.70;6.87;;;;;;;13.41;55.26;100581.58;1734873;82;21492;-58
2022/04/21 15:21:39;;;;;;;8.15;7.10;;;;;;;13.30;55.17;100581.50;1734355;82;21548;-58
2022/04/21 15:24:53;;;;;;;8.18;7.03;;;;;;;13.24;55.68;100584.17;1734065;82;21181;-58
2022/04/21 15:28:00;;;;;;;8.75;7.55;;;;;;;13.25;55.97;100591.38;1734076;82;21221;-58
2022/04/21 15:31:08;;;;;;;9.68;8.25;;;;;;;12.95;56.63;100589.58;1727070;82;21266;-59
2022/04/21 15:34:15;;;;;;;9.90;7.50;;;;;;;12.58;58.04;100595.04;1727313;82;21220;-59
2022/04/21 15:37:21;;;;;;;7.53;6.72;;;;;;;12.82;58.30;100599.83;1727806;82;21199;-58